createdAt,value
2023-04-04T00:02:37.141Z,6.91
2023-04-04T00:07:39.817Z,7.14
2023-04-04T00:12:43.343Z,6.83
2023-04-04T00:17:46.007Z,6.57
2023-04-04T00:22:48.592Z,6.47
2023-04-04T00:27:51.700Z,6.40
2023-04-04T00:32:54.338Z,6.48
2023-04-04T00:37:57.060Z,6.19
2023-04-04T00:43:00.819Z,6.20
2023-04-04T00:48:04.318Z,6.20
2023-04-04T00:53:07.042Z,5.89
2023-04-04T00:58:10.253Z,5.60
2023-04-04T01:03:13.124Z,5.42
2023-04-04T01:08:21.676Z,5.09
2023-04-04T01:13:24.243Z,5.22
2023-04-04T01:18:29.544Z,5.26
2023-04-04T01:23:57.904Z,5.14
2023-04-04T01:29:01.904Z,5.09
2023-04-04T01:34:28.809Z,4.70
2023-04-04T01:39:52.816Z,4.86
2023-04-04T01:44:57.807Z,4.95
2023-04-04T01:50:07.206Z,4.99
2023-04-04T01:55:10.126Z,4.58
2023-04-04T02:00:13.995Z,4.58
2023-04-04T02:05:19.208Z,4.82
2023-04-04T02:10:22.678Z,5.07
2023-04-04T02:15:25.854Z,5.31
2023-04-04T02:20:28.645Z,5.39
2023-04-04T02:25:31.304Z,5.53
2023-04-04T02:30:33.956Z,5.30
2023-04-04T02:35:39.680Z,5.33
2023-04-04T02:40:45.592Z,5.22
2023-04-04T02:45:51.551Z,5.54
2023-04-04T02:50:59.867Z,5.61
2023-04-04T02:56:05.553Z,5.32
2023-04-04T03:01:08.630Z,5.21
2023-04-04T03:06:15.208Z,5.08
2023-04-04T03:11:20.223Z,5.22
2023-04-04T03:16:24.713Z,5.28
2023-04-04T03:21:28.760Z,5.31
2023-04-04T03:26:33.560Z,5.29
2023-04-04T03:31:36.157Z,5.27
2023-04-04T03:36:38.974Z,5.29
2023-04-04T03:41:41.873Z,5.45
2023-04-04T03:46:44.725Z,5.30
2023-04-04T03:51:50.270Z,5.20
2023-04-04T03:56:53.273Z,5.12
2023-04-04T04:01:55.951Z,4.84
2023-04-04T04:06:58.964Z,5.03
2023-04-04T04:12:01.754Z,4.98
2023-04-04T04:17:06.580Z,4.98
2023-04-04T04:22:09.264Z,5.04
2023-04-04T04:27:12.600Z,5.05
2023-04-04T04:32:19.258Z,5.24
2023-04-04T04:37:26.411Z,5.36
2023-04-04T04:42:31.656Z,5.43
2023-04-04T04:47:37.550Z,5.01
2023-04-04T04:52:43.686Z,5.22
2023-04-04T04:57:48.546Z,5.32
2023-04-04T05:03:00.761Z,5.51
2023-04-04T05:08:12.061Z,5.38
2023-04-04T05:13:24.044Z,5.51
2023-04-04T05:18:27.639Z,5.46
2023-04-04T05:23:31.972Z,5.35
2023-04-04T05:28:34.974Z,5.14
2023-04-04T05:33:40.286Z,5.25
2023-04-04T05:38:56.978Z,5.22
2023-04-04T05:44:05.153Z,5.32
2023-04-04T05:49:08.005Z,5.25
2023-04-04T05:54:14.930Z,5.34
2023-04-04T05:59:19.145Z,5.61
2023-04-04T06:04:32.734Z,5.99
2023-04-04T06:09:38.535Z,6.22
2023-04-04T06:14:41.494Z,6.51
2023-04-04T06:19:45.295Z,6.85
2023-04-04T06:24:48.026Z,6.63
2023-04-04T06:29:51.035Z,6.97
2023-04-04T06:34:56.356Z,7.25
2023-04-04T06:40:14.120Z,7.71
2023-04-04T06:45:18.237Z,8.09
2023-04-04T06:50:23.189Z,8.17
2023-04-04T06:55:26.633Z,8.55
2023-04-04T07:00:29.225Z,8.82
2023-04-04T07:05:32.458Z,8.91
2023-04-04T07:10:35.059Z,8.93
2023-04-04T07:15:37.602Z,9.65
2023-04-04T07:20:40.362Z,9.82
2023-04-04T07:25:44.438Z,10.20
2023-04-04T07:30:47.185Z,10.82
2023-04-04T07:35:49.823Z,10.98
2023-04-04T07:40:52.451Z,11.03
2023-04-04T07:45:58.017Z,11.72
2023-04-04T07:51:04.885Z,11.99
2023-04-04T07:56:07.575Z,11.91
2023-04-04T08:01:10.169Z,12.80
2023-04-04T08:06:13.982Z,13.20
2023-04-04T08:11:16.855Z,13.52
2023-04-04T08:16:20.468Z,14.30
2023-04-04T08:21:23.161Z,14.50
2023-04-04T08:26:25.651Z,14.89
2023-04-04T08:31:31.962Z,15.67
2023-04-04T08:36:35.221Z,15.79
2023-04-04T08:41:39.335Z,14.74
2023-04-04T08:46:42.527Z,16.15
2023-04-04T08:51:48.689Z,13.96
2023-04-04T08:56:52.974Z,16.68
2023-04-04T09:02:12.159Z,17.73
2023-04-04T09:07:16.693Z,16.41
2023-04-04T09:12:20.499Z,14.97
2023-04-04T09:17:23.922Z,12.89
2023-04-04T09:22:28.064Z,12.35
2023-04-04T09:27:30.698Z,15.88
2023-04-04T09:32:33.954Z,17.48
2023-04-04T09:37:36.636Z,17.16
2023-04-04T09:42:39.926Z,17.60
2023-04-04T09:47:43.291Z,16.25
2023-04-04T09:52:48.566Z,17.55
2023-04-04T09:57:51.185Z,18.82
2023-04-04T10:02:55.564Z,19.51
2023-04-04T10:07:59.334Z,20.75
2023-04-04T10:13:01.947Z,21.47
2023-04-04T10:18:05.916Z,21.87
2023-04-04T10:23:09.103Z,21.59
2023-04-04T10:28:12.698Z,22.26
2023-04-04T10:33:21.966Z,23.52
2023-04-04T10:38:28.933Z,24.29
2023-04-04T10:43:35.132Z,24.10
2023-04-04T10:48:38.105Z,23.73
2023-04-04T10:53:42.796Z,24.41
2023-04-04T10:58:46.235Z,24.15
2023-04-04T11:04:21.973Z,25.19
2023-04-04T11:09:46.336Z,24.18
2023-04-04T11:14:59.202Z,25.55
2023-04-04T11:20:03.957Z,25.48
2023-04-04T11:25:27.227Z,25.26
2023-04-04T11:30:29.920Z,25.92
2023-04-04T11:35:32.739Z,25.93
2023-04-04T11:40:40.226Z,23.94
2023-04-04T11:45:46.415Z,24.83
2023-04-04T11:50:50.173Z,25.81
2023-04-04T11:55:56.660Z,25.54
2023-04-04T12:00:59.693Z,25.45
2023-04-04T12:06:03.370Z,24.17
2023-04-04T12:11:11.787Z,22.54
2023-04-04T12:16:14.811Z,20.27
2023-04-04T12:21:17.943Z,20.05
2023-04-04T12:26:20.822Z,19.75
2023-04-04T12:31:24.828Z,20.68
2023-04-04T12:36:31.624Z,20.89
2023-04-04T12:41:36.264Z,20.43
2023-04-04T12:46:40.618Z,19.72
2023-04-04T12:51:45.926Z,19.18
2023-04-04T12:56:49.223Z,21.37
2023-04-04T13:01:52.938Z,21.80
2023-04-04T13:06:55.827Z,21.29
2023-04-04T13:12:00.146Z,21.00
2023-04-04T13:17:06.624Z,20.87
2023-04-04T13:22:13.097Z,20.34
2023-04-04T13:27:16.003Z,20.74
2023-04-04T13:32:18.707Z,23.01
2023-04-04T13:37:21.354Z,24.14
2023-04-04T13:42:29.556Z,24.40
2023-04-04T13:47:32.173Z,24.93
2023-04-04T13:52:34.781Z,24.99
2023-04-04T13:57:37.369Z,24.84
2023-04-04T14:02:40.392Z,25.19
2023-04-04T14:07:43.796Z,24.87
2023-04-04T14:12:47.024Z,24.62
2023-04-04T14:17:49.940Z,24.51
2023-04-04T14:22:52.584Z,24.63
2023-04-04T14:27:56.217Z,24.27
2023-04-04T14:32:59.370Z,23.34
2023-04-04T14:38:02.511Z,23.36
2023-04-04T14:43:05.270Z,23.25
2023-04-04T14:48:07.939Z,22.57
2023-04-04T14:53:10.634Z,22.59
2023-04-04T14:58:14.226Z,22.17
2023-04-04T15:03:17.100Z,21.25
2023-04-04T15:08:20.128Z,21.19
2023-04-04T15:13:23.008Z,20.61
2023-04-04T15:18:25.848Z,20.59
2023-04-04T15:23:28.442Z,20.22
2023-04-04T15:28:31.180Z,19.63
2023-04-04T15:33:34.066Z,18.54
2023-04-04T15:38:36.664Z,18.65
2023-04-04T15:43:39.214Z,17.78
2023-04-04T15:48:42.236Z,17.36
2023-04-04T15:53:45.134Z,17.33
2023-04-04T15:58:47.798Z,17.40
2023-04-04T16:03:50.646Z,17.17
2023-04-04T16:08:54.511Z,16.80
2023-04-04T16:13:57.241Z,15.76
2023-04-04T16:18:59.773Z,15.84
2023-04-04T16:24:03.723Z,15.57
2023-04-04T16:29:06.371Z,15.48
2023-04-04T16:34:09.184Z,14.63
2023-04-04T16:39:11.949Z,14.59
2023-04-04T16:44:15.924Z,14.32
2023-04-04T16:49:18.679Z,14.14
2023-04-04T16:54:21.339Z,13.65
2023-04-04T16:59:24.142Z,13.34
2023-04-04T17:04:27.066Z,13.22
2023-04-04T17:09:29.732Z,12.89
2023-04-04T17:14:32.280Z,12.77
2023-04-04T17:19:36.352Z,12.45
2023-04-04T17:24:39.521Z,12.54
2023-04-04T17:29:42.412Z,12.53
2023-04-04T17:34:46.397Z,12.42
2023-04-04T17:39:49.406Z,12.28
2023-04-04T17:44:52.001Z,11.96
2023-04-04T17:49:54.693Z,12.02
2023-04-04T17:54:57.387Z,11.91
2023-04-04T18:00:00.297Z,11.90
2023-04-04T18:05:03.257Z,11.88
2023-04-04T18:10:07.206Z,11.53
2023-04-04T18:15:11.196Z,11.67
2023-04-04T18:20:18.583Z,11.51
2023-04-04T18:25:33.581Z,11.44
2023-04-04T18:30:37.531Z,11.39
2023-04-04T18:35:40.538Z,11.18
2023-04-04T18:40:46.084Z,11.23
2023-04-04T18:45:48.875Z,11.08
2023-04-04T18:50:52.255Z,11.02
2023-04-04T18:55:55.647Z,10.96
2023-04-04T19:00:58.808Z,10.83
2023-04-04T19:06:01.988Z,10.80
2023-04-04T19:11:04.606Z,10.69
2023-04-04T19:16:07.439Z,10.66
2023-04-04T19:21:11.021Z,10.55
2023-04-04T19:26:19.341Z,10.49
2023-04-04T19:31:24.371Z,10.47
2023-04-04T19:36:28.003Z,10.28
2023-04-04T19:41:38.506Z,10.28
2023-04-04T19:46:41.181Z,10.24
2023-04-04T19:51:54.072Z,10.16
2023-04-04T19:57:03.686Z,10.04
2023-04-04T20:02:14.544Z,10.03
2023-04-04T20:07:17.317Z,10.00
2023-04-04T20:12:24.442Z,9.97
2023-04-04T20:17:27.132Z,9.66
2023-04-04T20:22:29.773Z,9.67
2023-04-04T20:27:33.369Z,9.78
2023-04-04T20:32:35.944Z,9.73
2023-04-04T20:37:38.484Z,9.75
2023-04-04T20:42:42.279Z,9.47
2023-04-04T20:47:45.351Z,9.47
2023-04-04T20:52:51.283Z,9.51
2023-04-04T20:57:56.966Z,9.46
2023-04-04T21:03:22.300Z,9.34
2023-04-04T21:08:38.338Z,9.32
2023-04-04T21:13:42.831Z,9.32
2023-04-04T21:18:46.491Z,9.19
2023-04-04T21:23:50.518Z,8.84
2023-04-04T21:28:53.171Z,8.90
2023-04-04T21:33:58.340Z,8.45
2023-04-04T21:39:12.593Z,8.06
2023-04-04T21:44:15.735Z,7.82
2023-04-04T21:49:18.969Z,7.67
2023-04-04T21:54:21.712Z,7.78
2023-04-04T21:59:24.342Z,7.99
2023-04-04T22:04:26.998Z,8.10
2023-04-04T22:09:29.916Z,8.08
2023-04-04T22:14:32.435Z,7.55
2023-04-04T22:19:43.787Z,7.27
2023-04-04T22:24:46.567Z,7.16
2023-04-04T22:29:49.104Z,7.39
2023-04-04T22:34:52.175Z,6.96
2023-04-04T22:39:55.220Z,6.65
2023-04-04T22:44:57.883Z,6.59
2023-04-04T22:50:04.884Z,6.99
2023-04-04T22:55:07.878Z,6.94
2023-04-04T23:00:12.106Z,7.40
2023-04-04T23:05:17.308Z,7.25
2023-04-04T23:10:20.877Z,6.95
2023-04-04T23:15:23.481Z,6.39
2023-04-04T23:20:26.237Z,5.70
2023-04-04T23:25:28.943Z,5.88
2023-04-04T23:30:31.617Z,5.66
2023-04-04T23:35:34.106Z,5.06
2023-04-04T23:40:36.583Z,5.78
2023-04-04T23:45:40.962Z,5.94
2023-04-04T23:50:44.608Z,6.16
2023-04-04T23:55:47.353Z,5.65
